createdAt,value
2022-12-23T00:09:40.608Z,4142.19525
2022-12-23T00:24:42.556Z,4094.7293
2022-12-23T00:39:44.490Z,4066.76833
2022-12-23T00:54:46.488Z,3836.79362
2022-12-23T01:09:48.426Z,3489.58382
2022-12-23T01:24:50.336Z,2992.74197
2022-12-23T01:39:52.229Z,2594.3858
2022-12-23T01:54:54.172Z,2514.07181
2022-12-23T02:09:56.081Z,2300.42969
2022-12-23T02:24:58.173Z,2445.25599
2022-12-23T02:40:00.132Z,2246.43806
2022-12-23T02:55:02.042Z,2386.46534
2022-12-23T03:10:04.031Z,2576.92359
2022-12-23T03:25:05.952Z,2627.4515
2022-12-23T03:40:07.893Z,2754.36846
2022-12-23T03:55:09.847Z,2938.59702
2022-12-23T04:10:11.802Z,2974.47334
2022-12-23T04:25:13.714Z,2951.54238
2022-12-23T04:40:15.659Z,2542.69501
2022-12-23T04:55:17.613Z,2490.70683
2022-12-23T05:10:19.581Z,2782.97041
2022-12-23T05:25:21.481Z,2754.36846
2022-12-23T05:40:23.869Z,1872.81671
2022-12-23T05:55:29.126Z,1839.39652
2022-12-23T06:10:31.179Z,2554.81462
2022-12-23T06:25:33.091Z,2857.14339
2022-12-23T06:40:35.065Z,3047.18638
2022-12-23T06:55:36.987Z,3280.29424
2022-12-23T07:10:39.011Z,3337.48492
2022-12-23T07:25:40.959Z,3438.10184
2022-12-23T07:40:42.886Z,3526.31628
2022-12-23T07:55:44.795Z,3614.29584
2022-12-23T08:10:48.502Z,3696.55222
2022-12-23T08:25:50.700Z,3785.31123
2022-12-23T08:40:52.648Z,3853.34342
2022-12-23T08:55:54.736Z,3909.55557
2022-12-23T09:10:56.709Z,3997.01765
2022-12-23T09:25:58.635Z,4021.00575
2022-12-23T09:41:00.703Z,4042.23278
2022-12-23T09:56:02.695Z,4066.76833
2022-12-23T10:11:04.831Z,4057.53267
2022-12-23T10:26:06.763Z,4079.14814
2022-12-23T10:41:09.564Z,4027.04783
2022-12-23T10:56:11.934Z,4036.14508
2022-12-23T11:11:13.903Z,3991.06528
2022-12-23T11:26:15.932Z,4033.1081
2022-12-23T11:41:17.824Z,4024.02452
2022-12-23T11:56:19.776Z,4054.46344
2022-12-23T12:11:21.903Z,4030.07569
2022-12-23T12:26:23.822Z,3704.21611
2022-12-23T12:41:25.767Z,3268.29317
2022-12-23T12:56:27.799Z,3278.28795
2022-12-23T13:11:29.927Z,3368.95083
2022-12-23T13:26:31.867Z,3444.73057
2022-12-23T13:41:33.875Z,3582.88819
2022-12-23T13:56:35.857Z,3666.21116
2022-12-23T14:11:38.721Z,3774.64838
2022-12-23T14:26:40.671Z,3856.1156
2022-12-23T14:41:42.588Z,3932.50233
2022-12-23T14:56:44.539Z,3609.4281
2022-12-23T15:11:46.491Z,3573.33382
2022-12-23T15:27:03.629Z,3276.28411
2022-12-23T15:42:27.002Z,3234.7621
2022-12-23T15:57:28.927Z,3331.26214
2022-12-23T16:12:31.011Z,3371.06967
2022-12-23T16:27:32.930Z,3487.31344
2022-12-23T16:42:34.867Z,3500.98024
2022-12-23T16:57:36.841Z,3431.49857
2022-12-23T17:12:38.942Z,3196.18415
2022-12-23T17:27:40.910Z,3028.24907
2022-12-23T17:42:42.878Z,3252.42767
2022-12-23T17:57:44.802Z,3414.01323
2022-12-23T18:12:46.795Z,3473.75292
2022-12-23T18:27:48.750Z,3619.17672
2022-12-23T18:42:50.721Z,3761.404
2022-12-23T18:57:52.679Z,3785.31123
2022-12-23T19:12:54.589Z,3867.24436
2022-12-23T19:27:56.529Z,3875.63318
2022-12-23T19:42:58.547Z,3920.99538
2022-12-23T19:58:00.482Z,3915.26712
2022-12-23T20:13:02.604Z,3901.01942
2022-12-23T20:28:04.587Z,3941.17697
2022-12-23T20:43:10.345Z,3952.80286
2022-12-23T20:58:15.461Z,4024.02452
2022-12-23T21:13:17.400Z,4027.04783
2022-12-23T21:28:19.350Z,3884.05847
2022-12-23T21:43:21.355Z,3621.62211
2022-12-23T21:58:23.268Z,3704.21611
2022-12-23T22:13:25.121Z,3587.68456
2022-12-23T22:28:27.092Z,3653.71556
2022-12-23T22:43:29.059Z,3537.95429
2022-12-23T22:58:31.110Z,3494.13348
2022-12-23T23:13:33.074Z,3420.54931
2022-12-23T23:28:35.035Z,3182.89835
2022-12-23T23:43:37.012Z,3284.31421
2022-12-23T23:58:38.917Z,3286.32789
